sensor_id;sensor_type;location;lat;lon;timestamp;P1;durP1;ratioP1;P2;durP2;ratioP2
83282;SDS011;73190;50.780;5.658;2023-11-21T00:00:16;35.35;;;19.98;;
83282;SDS011;73190;50.780;5.658;2023-11-21T00:02:44;34.27;;;19.98;;
83282;SDS011;73190;50.780;5.658;2023-11-21T00:05:12;33.25;;;19.77;;
83282;SDS011;73190;50.780;5.658;2023-11-21T00:07:41;36.03;;;18.90;;
83282;SDS011;73190;50.780;5.658;2023-11-21T00:10:09;39.15;;;20.55;;
83282;SDS011;73190;50.780;5.658;2023-11-21T00:12:40;34.25;;;19.07;;
83282;SDS011;73190;50.780;5.658;2023-11-21T00:15:08;38.48;;;21.23;;
83282;SDS011;73190;50.780;5.658;2023-11-21T00:17:39;36.25;;;20.43;;
83282;SDS011;73190;50.780;5.658;2023-11-21T00:20:08;34.23;;;20.72;;
83282;SDS011;73190;50.780;5.658;2023-11-21T00:22:37;38.55;;;19.48;;
83282;SDS011;73190;50.780;5.658;2023-11-21T00:25:06;34.33;;;20.25;;
83282;SDS011;73190;50.780;5.658;2023-11-21T00:27:35;35.20;;;19.92;;
83282;SDS011;73190;50.780;5.658;2023-11-21T00:30:03;34.58;;;20.82;;
83282;SDS011;73190;50.780;5.658;2023-11-21T00:32:32;35.92;;;21.02;;
83282;SDS011;73190;50.780;5.658;2023-11-21T00:34:59;36.55;;;20.02;;
83282;SDS011;73190;50.780;5.658;2023-11-21T00:37:27;35.43;;;19.02;;
83282;SDS011;73190;50.780;5.658;2023-11-21T00:39:54;32.53;;;19.37;;
83282;SDS011;73190;50.780;5.658;2023-11-21T00:42:22;32.40;;;19.32;;
83282;SDS011;73190;50.780;5.658;2023-11-21T00:44:49;39.70;;;19.87;;
83282;SDS011;73190;50.780;5.658;2023-11-21T00:47:17;36.00;;;21.17;;
83282;SDS011;73190;50.780;5.658;2023-11-21T00:49:44;36.33;;;20.32;;
83282;SDS011;73190;50.780;5.658;2023-11-21T00:52:12;33.08;;;19.62;;
83282;SDS011;73190;50.780;5.658;2023-11-21T00:54:39;35.30;;;20.88;;
83282;SDS011;73190;50.780;5.658;2023-11-21T00:57:07;34.18;;;20.57;;
83282;SDS011;73190;50.780;5.658;2023-11-21T00:59:35;40.65;;;21.90;;
83282;SDS011;73190;50.780;5.658;2023-11-21T01:02:02;37.60;;;20.25;;
83282;SDS011;73190;50.780;5.658;2023-11-21T01:04:30;35.73;;;21.45;;
83282;SDS011;73190;50.780;5.658;2023-11-21T01:06:58;38.25;;;21.02;;
83282;SDS011;73190;50.780;5.658;2023-11-21T01:09:26;35.20;;;21.25;;
83282;SDS011;73190;50.780;5.658;2023-11-21T01:11:54;37.48;;;21.73;;
83282;SDS011;73190;50.780;5.658;2023-11-21T01:14:21;35.65;;;21.50;;
83282;SDS011;73190;50.780;5.658;2023-11-21T01:16:49;43.55;;;22.00;;
83282;SDS011;73190;50.780;5.658;2023-11-21T01:19:16;36.38;;;20.92;;
83282;SDS011;73190;50.780;5.658;2023-11-21T01:21:44;33.63;;;19.95;;
83282;SDS011;73190;50.780;5.658;2023-11-21T01:24:11;33.33;;;19.17;;
83282;SDS011;73190;50.780;5.658;2023-11-21T01:26:39;35.55;;;19.55;;
83282;SDS011;73190;50.780;5.658;2023-11-21T01:29:06;32.23;;;19.85;;
83282;SDS011;73190;50.780;5.658;2023-11-21T01:31:34;32.83;;;19.27;;
83282;SDS011;73190;50.780;5.658;2023-11-21T01:34:01;32.95;;;19.57;;
83282;SDS011;73190;50.780;5.658;2023-11-21T01:36:31;29.75;;;18.90;;
83282;SDS011;73190;50.780;5.658;2023-11-21T01:38:59;28.40;;;17.85;;
83282;SDS011;73190;50.780;5.658;2023-11-21T01:41:27;35.70;;;19.87;;
83282;SDS011;73190;50.780;5.658;2023-11-21T01:43:55;35.20;;;18.77;;
83282;SDS011;73190;50.780;5.658;2023-11-21T01:46:22;31.50;;;19.87;;
83282;SDS011;73190;50.780;5.658;2023-11-21T01:48:50;33.67;;;18.65;;
83282;SDS011;73190;50.780;5.658;2023-11-21T01:51:19;36.15;;;19.32;;
83282;SDS011;73190;50.780;5.658;2023-11-21T01:53:46;30.88;;;18.07;;
83282;SDS011;73190;50.780;5.658;2023-11-21T01:56:14;30.57;;;18.10;;
83282;SDS011;73190;50.780;5.658;2023-11-21T01:58:42;31.50;;;18.32;;
83282;SDS011;73190;50.780;5.658;2023-11-21T02:01:09;30.10;;;18.57;;
83282;SDS011;73190;50.780;5.658;2023-11-21T02:03:37;31.25;;;19.42;;
83282;SDS011;73190;50.780;5.658;2023-11-21T02:06:05;29.48;;;19.50;;
83282;SDS011;73190;50.780;5.658;2023-11-21T02:08:32;29.55;;;18.95;;
83282;SDS011;73190;50.780;5.658;2023-11-21T02:11:00;35.83;;;20.68;;
83282;SDS011;73190;50.780;5.658;2023-11-21T02:13:28;34.90;;;20.48;;
83282;SDS011;73190;50.780;5.658;2023-11-21T02:15:55;34.65;;;19.35;;
83282;SDS011;73190;50.780;5.658;2023-11-21T02:18:23;33.70;;;20.25;;
83282;SDS011;73190;50.780;5.658;2023-11-21T02:20:51;30.48;;;19.23;;
83282;SDS011;73190;50.780;5.658;2023-11-21T02:23:18;30.65;;;19.27;;
83282;SDS011;73190;50.780;5.658;2023-11-21T02:25:46;31.97;;;20.62;;
83282;SDS011;73190;50.780;5.658;2023-11-21T02:28:14;34.03;;;19.50;;
83282;SDS011;73190;50.780;5.658;2023-11-21T02:30:43;31.85;;;18.32;;
83282;SDS011;73190;50.780;5.658;2023-11-21T02:33:11;31.48;;;18.40;;
83282;SDS011;73190;50.780;5.658;2023-11-21T02:35:38;31.48;;;18.37;;
83282;SDS011;73190;50.780;5.658;2023-11-21T02:38:06;31.62;;;18.87;;
83282;SDS011;73190;50.780;5.658;2023-11-21T02:40:33;31.62;;;19.52;;
83282;SDS011;73190;50.780;5.658;2023-11-21T02:43:01;32.90;;;19.52;;
83282;SDS011;73190;50.780;5.658;2023-11-21T02:45:28;32.70;;;19.30;;
83282;SDS011;73190;50.780;5.658;2023-11-21T02:47:56;34.55;;;20.02;;
83282;SDS011;73190;50.780;5.658;2023-11-21T02:50:24;35.33;;;19.55;;
83282;SDS011;73190;50.780;5.658;2023-11-21T02:52:51;30.77;;;19.42;;
83282;SDS011;73190;50.780;5.658;2023-11-21T02:55:19;31.17;;;19.45;;
83282;SDS011;73190;50.780;5.658;2023-11-21T02:57:47;35.70;;;19.45;;
83282;SDS011;73190;50.780;5.658;2023-11-21T03:00:14;32.48;;;18.85;;
83282;SDS011;73190;50.780;5.658;2023-11-21T03:02:42;30.72;;;18.75;;
83282;SDS011;73190;50.780;5.658;2023-11-21T03:05:10;29.87;;;18.70;;
83282;SDS011;73190;50.780;5.658;2023-11-21T03:07:38;34.33;;;18.90;;
83282;SDS011;73190;50.780;5.658;2023-11-21T03:10:11;36.17;;;21.10;;
83282;SDS011;73190;50.780;5.658;2023-11-21T03:12:39;37.85;;;21.00;;
83282;SDS011;73190;50.780;5.658;2023-11-21T03:15:07;32.55;;;19.55;;
83282;SDS011;73190;50.780;5.658;2023-11-21T03:17:39;34.18;;;20.65;;
83282;SDS011;73190;50.780;5.658;2023-11-21T03:20:08;36.53;;;20.65;;
83282;SDS011;73190;50.780;5.658;2023-11-21T03:22:39;35.03;;;20.30;;
83282;SDS011;73190;50.780;5.658;2023-11-21T03:25:08;34.67;;;20.37;;
83282;SDS011;73190;50.780;5.658;2023-11-21T03:27:36;32.10;;;19.65;;
83282;SDS011;73190;50.780;5.658;2023-11-21T03:30:05;29.92;;;19.57;;
83282;SDS011;73190;50.780;5.658;2023-11-21T03:32:34;31.80;;;19.62;;
83282;SDS011;73190;50.780;5.658;2023-11-21T03:35:01;33.00;;;19.50;;
83282;SDS011;73190;50.780;5.658;2023-11-21T03:37:29;33.20;;;20.97;;
83282;SDS011;73190;50.780;5.658;2023-11-21T03:39:57;32.88;;;21.60;;
83282;SDS011;73190;50.780;5.658;2023-11-21T03:42:24;36.77;;;22.20;;
83282;SDS011;73190;50.780;5.658;2023-11-21T03:44:52;36.20;;;21.00;;
83282;SDS011;73190;50.780;5.658;2023-11-21T03:47:19;32.40;;;20.88;;
83282;SDS011;73190;50.780;5.658;2023-11-21T03:49:47;32.35;;;21.02;;
83282;SDS011;73190;50.780;5.658;2023-11-21T03:52:15;34.00;;;21.10;;
83282;SDS011;73190;50.780;5.658;2023-11-21T03:54:42;32.80;;;20.12;;
83282;SDS011;73190;50.780;5.658;2023-11-21T03:57:10;31.90;;;19.73;;
83282;SDS011;73190;50.780;5.658;2023-11-21T03:59:41;35.20;;;21.20;;
83282;SDS011;73190;50.780;5.658;2023-11-21T04:02:09;32.65;;;19.98;;
83282;SDS011;73190;50.780;5.658;2023-11-21T04:04:37;31.73;;;20.50;;
83282;SDS011;73190;50.780;5.658;2023-11-21T04:07:05;33.30;;;20.45;;
83282;SDS011;73190;50.780;5.658;2023-11-21T04:09:32;34.27;;;21.00;;
83282;SDS011;73190;50.780;5.658;2023-11-21T04:12:00;39.55;;;23.45;;
83282;SDS011;73190;50.780;5.658;2023-11-21T04:14:28;34.73;;;21.10;;
83282;SDS011;73190;50.780;5.658;2023-11-21T04:16:55;37.38;;;22.75;;
83282;SDS011;73190;50.780;5.658;2023-11-21T04:19:23;39.08;;;22.93;;
83282;SDS011;73190;50.780;5.658;2023-11-21T04:21:52;40.00;;;23.32;;
83282;SDS011;73190;50.780;5.658;2023-11-21T04:24:20;35.92;;;21.40;;
83282;SDS011;73190;50.780;5.658;2023-11-21T04:26:47;38.42;;;21.33;;
83282;SDS011;73190;50.780;5.658;2023-11-21T04:29:15;33.88;;;20.30;;
83282;SDS011;73190;50.780;5.658;2023-11-21T04:34:29;36.10;;;20.52;;
83282;SDS011;73190;50.780;5.658;2023-11-21T04:36:58;39.78;;;20.52;;
83282;SDS011;73190;50.780;5.658;2023-11-21T04:39:28;36.85;;;20.90;;
83282;SDS011;73190;50.780;5.658;2023-11-21T04:41:56;36.93;;;21.57;;
83282;SDS011;73190;50.780;5.658;2023-11-21T04:44:23;35.38;;;20.37;;
83282;SDS011;73190;50.780;5.658;2023-11-21T04:46:51;41.33;;;21.85;;
83282;SDS011;73190;50.780;5.658;2023-11-21T04:49:19;36.38;;;19.70;;
83282;SDS011;73190;50.780;5.658;2023-11-21T04:51:47;40.33;;;20.02;;
83282;SDS011;73190;50.780;5.658;2023-11-21T04:54:14;40.67;;;21.62;;
83282;SDS011;73190;50.780;5.658;2023-11-21T04:56:43;38.53;;;21.00;;
83282;SDS011;73190;50.780;5.658;2023-11-21T04:59:10;42.48;;;20.08;;
83282;SDS011;73190;50.780;5.658;2023-11-21T05:01:38;39.35;;;20.48;;
83282;SDS011;73190;50.780;5.658;2023-11-21T05:04:05;49.18;;;23.15;;
83282;SDS011;73190;50.780;5.658;2023-11-21T05:06:34;45.43;;;21.15;;
83282;SDS011;73190;50.780;5.658;2023-11-21T05:09:02;52.43;;;22.20;;
83282;SDS011;73190;50.780;5.658;2023-11-21T05:11:30;51.73;;;22.22;;
83282;SDS011;73190;50.780;5.658;2023-11-21T05:13:57;55.45;;;22.95;;
83282;SDS011;73190;50.780;5.658;2023-11-21T05:16:27;52.20;;;23.47;;
83282;SDS011;73190;50.780;5.658;2023-11-21T05:18:54;55.20;;;23.25;;
83282;SDS011;73190;50.780;5.658;2023-11-21T05:21:26;56.50;;;23.15;;
83282;SDS011;73190;50.780;5.658;2023-11-21T05:23:56;51.25;;;21.57;;
83282;SDS011;73190;50.780;5.658;2023-11-21T05:26:23;63.05;;;25.15;;
83282;SDS011;73190;50.780;5.658;2023-11-21T05:28:51;68.83;;;25.45;;
83282;SDS011;73190;50.780;5.658;2023-11-21T05:31:19;71.75;;;26.17;;
83282;SDS011;73190;50.780;5.658;2023-11-21T05:33:47;62.13;;;24.35;;
83282;SDS011;73190;50.780;5.658;2023-11-21T05:36:14;61.58;;;23.38;;
83282;SDS011;73190;50.780;5.658;2023-11-21T05:38:42;63.55;;;24.47;;
83282;SDS011;73190;50.780;5.658;2023-11-21T05:41:10;65.60;;;24.27;;
83282;SDS011;73190;50.780;5.658;2023-11-21T05:43:39;66.20;;;25.20;;
83282;SDS011;73190;50.780;5.658;2023-11-21T05:46:06;72.03;;;25.57;;
83282;SDS011;73190;50.780;5.658;2023-11-21T05:48:35;69.72;;;25.70;;
83282;SDS011;73190;50.780;5.658;2023-11-21T05:51:04;65.70;;;25.77;;
83282;SDS011;73190;50.780;5.658;2023-11-21T05:53:32;66.80;;;23.70;;
83282;SDS011;73190;50.780;5.658;2023-11-21T05:56:00;67.75;;;26.70;;
83282;SDS011;73190;50.780;5.658;2023-11-21T05:58:29;69.15;;;26.75;;
83282;SDS011;73190;50.780;5.658;2023-11-21T06:00:57;75.12;;;28.25;;
83282;SDS011;73190;50.780;5.658;2023-11-21T06:03:25;66.05;;;25.72;;
83282;SDS011;73190;50.780;5.658;2023-11-21T06:05:52;69.80;;;27.90;;
83282;SDS011;73190;50.780;5.658;2023-11-21T06:08:20;57.90;;;24.77;;
83282;SDS011;73190;50.780;5.658;2023-11-21T06:10:48;64.85;;;25.10;;
83282;SDS011;73190;50.780;5.658;2023-11-21T06:13:16;61.88;;;25.77;;
83282;SDS011;73190;50.780;5.658;2023-11-21T06:15:45;66.73;;;26.50;;
83282;SDS011;73190;50.780;5.658;2023-11-21T06:18:12;65.52;;;25.02;;
83282;SDS011;73190;50.780;5.658;2023-11-21T06:20:40;61.68;;;26.95;;
83282;SDS011;73190;50.780;5.658;2023-11-21T06:23:08;61.08;;;25.97;;
83282;SDS011;73190;50.780;5.658;2023-11-21T06:25:35;58.98;;;25.88;;
83282;SDS011;73190;50.780;5.658;2023-11-21T06:28:03;60.60;;;25.25;;
83282;SDS011;73190;50.780;5.658;2023-11-21T06:30:32;61.30;;;26.12;;
83282;SDS011;73190;50.780;5.658;2023-11-21T06:32:59;65.55;;;26.33;;
83282;SDS011;73190;50.780;5.658;2023-11-21T06:35:27;63.08;;;26.02;;
83282;SDS011;73190;50.780;5.658;2023-11-21T06:37:57;69.75;;;26.60;;
83282;SDS011;73190;50.780;5.658;2023-11-21T06:40:24;77.65;;;28.83;;
83282;SDS011;73190;50.780;5.658;2023-11-21T06:42:52;77.70;;;30.23;;
83282;SDS011;73190;50.780;5.658;2023-11-21T06:45:19;80.80;;;29.40;;
83282;SDS011;73190;50.780;5.658;2023-11-21T06:47:47;68.78;;;25.77;;
83282;SDS011;73190;50.780;5.658;2023-11-21T06:50:15;82.75;;;28.87;;
83282;SDS011;73190;50.780;5.658;2023-11-21T06:52:42;92.55;;;30.52;;
83282;SDS011;73190;50.780;5.658;2023-11-21T06:55:10;85.53;;;29.98;;
83282;SDS011;73190;50.780;5.658;2023-11-21T06:57:37;84.05;;;29.65;;
83282;SDS011;73190;50.780;5.658;2023-11-21T07:00:05;85.42;;;30.48;;
83282;SDS011;73190;50.780;5.658;2023-11-21T07:02:34;94.75;;;30.65;;
83282;SDS011;73190;50.780;5.658;2023-11-21T07:05:03;90.42;;;30.27;;
83282;SDS011;73190;50.780;5.658;2023-11-21T07:07:31;98.67;;;31.02;;
83282;SDS011;73190;50.780;5.658;2023-11-21T07:10:01;101.97;;;31.73;;
83282;SDS011;73190;50.780;5.658;2023-11-21T07:12:30;108.67;;;32.50;;
83282;SDS011;73190;50.780;5.658;2023-11-21T07:14:57;109.32;;;34.67;;
83282;SDS011;73190;50.780;5.658;2023-11-21T07:17:25;106.60;;;32.33;;
83282;SDS011;73190;50.780;5.658;2023-11-21T07:19:53;103.30;;;34.00;;
83282;SDS011;73190;50.780;5.658;2023-11-21T07:22:22;98.97;;;33.00;;
83282;SDS011;73190;50.780;5.658;2023-11-21T07:24:49;97.50;;;30.97;;
83282;SDS011;73190;50.780;5.658;2023-11-21T07:27:17;95.22;;;31.23;;
83282;SDS011;73190;50.780;5.658;2023-11-21T07:29:45;94.67;;;32.80;;
83282;SDS011;73190;50.780;5.658;2023-11-21T07:32:14;89.80;;;31.23;;
83282;SDS011;73190;50.780;5.658;2023-11-21T07:34:41;79.47;;;29.72;;
83282;SDS011;73190;50.780;5.658;2023-11-21T07:37:09;81.57;;;30.08;;
83282;SDS011;73190;50.780;5.658;2023-11-21T07:39:36;76.30;;;29.87;;
83282;SDS011;73190;50.780;5.658;2023-11-21T07:42:06;79.17;;;29.85;;
83282;SDS011;73190;50.780;5.658;2023-11-21T07:44:33;67.40;;;29.00;;
83282;SDS011;73190;50.780;5.658;2023-11-21T07:47:01;72.42;;;27.37;;
83282;SDS011;73190;50.780;5.658;2023-11-21T07:49:31;63.43;;;27.33;;
83282;SDS011;73190;50.780;5.658;2023-11-21T07:51:59;65.80;;;26.50;;
83282;SDS011;73190;50.780;5.658;2023-11-21T07:54:28;64.45;;;27.55;;
83282;SDS011;73190;50.780;5.658;2023-11-21T07:56:57;65.40;;;27.40;;
83282;SDS011;73190;50.780;5.658;2023-11-21T07:59:24;65.57;;;26.00;;
83282;SDS011;73190;50.780;5.658;2023-11-21T08:01:52;58.80;;;26.15;;
83282;SDS011;73190;50.780;5.658;2023-11-21T08:04:20;51.73;;;23.45;;
83282;SDS011;73190;50.780;5.658;2023-11-21T08:06:48;49.77;;;22.02;;
83282;SDS011;73190;50.780;5.658;2023-11-21T08:09:17;47.13;;;20.65;;
83282;SDS011;73190;50.780;5.658;2023-11-21T08:11:45;45.43;;;21.05;;
83282;SDS011;73190;50.780;5.658;2023-11-21T08:14:12;45.05;;;21.30;;
83282;SDS011;73190;50.780;5.658;2023-11-21T08:16:40;45.55;;;21.37;;
83282;SDS011;73190;50.780;5.658;2023-11-21T08:19:08;43.23;;;19.25;;
83282;SDS011;73190;50.780;5.658;2023-11-21T08:21:36;45.55;;;20.35;;
83282;SDS011;73190;50.780;5.658;2023-11-21T08:24:06;50.47;;;21.73;;
83282;SDS011;73190;50.780;5.658;2023-11-21T08:29:02;48.52;;;20.80;;
83282;SDS011;73190;50.780;5.658;2023-11-21T08:31:31;49.27;;;21.57;;
83282;SDS011;73190;50.780;5.658;2023-11-21T08:33:59;52.20;;;20.43;;
83282;SDS011;73190;50.780;5.658;2023-11-21T08:36:29;51.65;;;23.05;;
83282;SDS011;73190;50.780;5.658;2023-11-21T08:38:57;55.92;;;21.17;;
83282;SDS011;73190;50.780;5.658;2023-11-21T08:41:24;50.63;;;20.70;;
83282;SDS011;73190;50.780;5.658;2023-11-21T08:43:53;51.40;;;22.48;;
83282;SDS011;73190;50.780;5.658;2023-11-21T08:46:21;54.98;;;22.58;;
83282;SDS011;73190;50.780;5.658;2023-11-21T08:48:51;53.17;;;21.42;;
83282;SDS011;73190;50.780;5.658;2023-11-21T08:51:19;53.60;;;21.73;;
83282;SDS011;73190;50.780;5.658;2023-11-21T08:53:46;52.23;;;21.77;;
83282;SDS011;73190;50.780;5.658;2023-11-21T08:59:02;47.75;;;19.98;;
83282;SDS011;73190;50.780;5.658;2023-11-21T09:01:29;49.30;;;21.10;;
83282;SDS011;73190;50.780;5.658;2023-11-21T09:03:57;56.15;;;21.70;;
83282;SDS011;73190;50.780;5.658;2023-11-21T09:06:25;53.65;;;21.95;;
83282;SDS011;73190;50.780;5.658;2023-11-21T09:08:52;51.42;;;21.45;;
83282;SDS011;73190;50.780;5.658;2023-11-21T09:11:20;55.98;;;23.38;;
83282;SDS011;73190;50.780;5.658;2023-11-21T09:13:47;49.98;;;23.35;;
83282;SDS011;73190;50.780;5.658;2023-11-21T09:16:15;51.40;;;22.55;;
83282;SDS011;73190;50.780;5.658;2023-11-21T09:18:42;49.75;;;23.38;;
83282;SDS011;73190;50.780;5.658;2023-11-21T09:21:11;53.98;;;23.12;;
83282;SDS011;73190;50.780;5.658;2023-11-21T09:23:38;52.65;;;21.93;;
83282;SDS011;73190;50.780;5.658;2023-11-21T09:26:06;58.13;;;23.18;;
83282;SDS011;73190;50.780;5.658;2023-11-21T09:28:33;52.15;;;20.57;;
83282;SDS011;73190;50.780;5.658;2023-11-21T09:31:02;58.47;;;24.13;;
83282;SDS011;73190;50.780;5.658;2023-11-21T09:36:02;50.45;;;21.93;;
83282;SDS011;73190;50.780;5.658;2023-11-21T09:38:30;52.83;;;22.95;;
83282;SDS011;73190;50.780;5.658;2023-11-21T09:40:58;55.08;;;22.60;;
83282;SDS011;73190;50.780;5.658;2023-11-21T09:43:27;56.05;;;23.20;;
83282;SDS011;73190;50.780;5.658;2023-11-21T09:45:59;57.58;;;22.90;;
83282;SDS011;73190;50.780;5.658;2023-11-21T09:48:29;60.08;;;23.42;;
83282;SDS011;73190;50.780;5.658;2023-11-21T09:50:58;53.48;;;22.87;;
83282;SDS011;73190;50.780;5.658;2023-11-21T09:53:29;57.60;;;22.93;;
83282;SDS011;73190;50.780;5.658;2023-11-21T09:55:59;51.77;;;22.87;;
83282;SDS011;73190;50.780;5.658;2023-11-21T09:58:28;53.68;;;22.98;;
83282;SDS011;73190;50.780;5.658;2023-11-21T10:00:57;53.63;;;22.58;;
83282;SDS011;73190;50.780;5.658;2023-11-21T10:03:26;58.25;;;23.87;;
83282;SDS011;73190;50.780;5.658;2023-11-21T10:05:56;57.10;;;22.20;;
83282;SDS011;73190;50.780;5.658;2023-11-21T10:08:26;58.75;;;24.05;;
83282;SDS011;73190;50.780;5.658;2023-11-21T10:10:54;60.75;;;25.40;;
83282;SDS011;73190;50.780;5.658;2023-11-21T10:13:22;56.02;;;24.12;;
83282;SDS011;73190;50.780;5.658;2023-11-21T10:15:51;61.02;;;25.40;;
83282;SDS011;73190;50.780;5.658;2023-11-21T10:18:19;59.35;;;25.00;;
83282;SDS011;73190;50.780;5.658;2023-11-21T10:20:48;54.73;;;26.17;;
83282;SDS011;73190;50.780;5.658;2023-11-21T10:23:19;53.95;;;25.00;;
83282;SDS011;73190;50.780;5.658;2023-11-21T10:25:48;49.05;;;22.70;;
83282;SDS011;73190;50.780;5.658;2023-11-21T10:28:18;55.70;;;24.87;;
83282;SDS011;73190;50.780;5.658;2023-11-21T10:30:46;50.23;;;24.43;;
83282;SDS011;73190;50.780;5.658;2023-11-21T10:33:15;55.10;;;23.92;;
83282;SDS011;73190;50.780;5.658;2023-11-21T10:35:46;53.33;;;25.40;;
83282;SDS011;73190;50.780;5.658;2023-11-21T10:38:19;47.43;;;23.75;;
83282;SDS011;73190;50.780;5.658;2023-11-21T10:43:17;46.18;;;22.17;;
83282;SDS011;73190;50.780;5.658;2023-11-21T10:45:45;43.05;;;20.25;;
83282;SDS011;73190;50.780;5.658;2023-11-21T10:48:13;43.60;;;21.42;;
83282;SDS011;73190;50.780;5.658;2023-11-21T10:50:44;49.65;;;25.02;;
83282;SDS011;73190;50.780;5.658;2023-11-21T10:56:02;47.90;;;23.87;;
83282;SDS011;73190;50.780;5.658;2023-11-21T10:58:33;47.38;;;22.35;;
83282;SDS011;73190;50.780;5.658;2023-11-21T11:01:02;44.55;;;23.30;;
83282;SDS011;73190;50.780;5.658;2023-11-21T11:03:32;43.30;;;20.75;;
83282;SDS011;73190;50.780;5.658;2023-11-21T11:06:03;43.33;;;21.57;;
83282;SDS011;73190;50.780;5.658;2023-11-21T11:08:35;49.98;;;23.10;;
83282;SDS011;73190;50.780;5.658;2023-11-21T11:11:09;45.35;;;21.35;;
83282;SDS011;73190;50.780;5.658;2023-11-21T11:13:32;44.80;;;22.50;;
83282;SDS011;73190;50.780;5.658;2023-11-21T11:16:00;47.48;;;22.80;;
83282;SDS011;73190;50.780;5.658;2023-11-21T11:18:29;50.50;;;23.62;;
83282;SDS011;73190;50.780;5.658;2023-11-21T11:21:14;47.73;;;22.75;;
83282;SDS011;73190;50.780;5.658;2023-11-21T11:23:32;47.30;;;22.40;;
83282;SDS011;73190;50.780;5.658;2023-11-21T11:31:27;43.38;;;20.52;;
83282;SDS011;73190;50.780;5.658;2023-11-21T11:34:16;41.02;;;19.80;;
83282;SDS011;73190;50.780;5.658;2023-11-21T11:37:02;43.37;;;20.30;;
83282;SDS011;73190;50.780;5.658;2023-11-21T11:39:38;42.43;;;18.75;;
83282;SDS011;73190;50.780;5.658;2023-11-21T11:42:17;39.60;;;19.20;;
83282;SDS011;73190;50.780;5.658;2023-11-21T11:47:15;43.63;;;20.92;;
83282;SDS011;73190;50.780;5.658;2023-11-21T11:52:46;37.85;;;18.60;;
83282;SDS011;73190;50.780;5.658;2023-11-21T11:55:17;39.13;;;18.67;;
83282;SDS011;73190;50.780;5.658;2023-11-21T11:57:51;42.25;;;18.23;;
83282;SDS011;73190;50.780;5.658;2023-11-21T12:03:00;35.90;;;18.37;;
83282;SDS011;73190;50.780;5.658;2023-11-21T12:05:30;36.30;;;17.65;;
83282;SDS011;73190;50.780;5.658;2023-11-21T12:08:03;33.40;;;17.37;;
83282;SDS011;73190;50.780;5.658;2023-11-21T12:13:17;35.83;;;15.75;;
83282;SDS011;73190;50.780;5.658;2023-11-21T12:15:36;29.20;;;16.32;;
83282;SDS011;73190;50.780;5.658;2023-11-21T12:18:04;29.65;;;15.80;;
83282;SDS011;73190;50.780;5.658;2023-11-21T12:20:32;32.93;;;16.97;;
83282;SDS011;73190;50.780;5.658;2023-11-21T12:23:05;29.02;;;15.95;;
83282;SDS011;73190;50.780;5.658;2023-11-21T12:28:04;27.58;;;14.30;;
83282;SDS011;73190;50.780;5.658;2023-11-21T12:30:33;26.33;;;15.08;;
83282;SDS011;73190;50.780;5.658;2023-11-21T12:33:03;31.68;;;14.93;;
83282;SDS011;73190;50.780;5.658;2023-11-21T12:35:35;26.90;;;14.40;;
83282;SDS011;73190;50.780;5.658;2023-11-21T12:38:04;31.82;;;14.87;;
83282;SDS011;73190;50.780;5.658;2023-11-21T12:40:32;31.40;;;14.63;;
83282;SDS011;73190;50.780;5.658;2023-11-21T12:43:00;31.93;;;16.37;;
83282;SDS011;73190;50.780;5.658;2023-11-21T12:45:29;27.05;;;14.68;;
83282;SDS011;73190;50.780;5.658;2023-11-21T12:48:01;29.63;;;15.20;;
83282;SDS011;73190;50.780;5.658;2023-11-21T12:50:31;31.40;;;15.55;;
83282;SDS011;73190;50.780;5.658;2023-11-21T12:53:02;26.62;;;14.75;;
83282;SDS011;73190;50.780;5.658;2023-11-21T12:55:35;32.88;;;16.40;;
83282;SDS011;73190;50.780;5.658;2023-11-21T12:58:04;29.57;;;16.35;;
83282;SDS011;73190;50.780;5.658;2023-11-21T13:00:40;31.68;;;16.25;;
83282;SDS011;73190;50.780;5.658;2023-11-21T13:03:15;30.52;;;16.20;;
83282;SDS011;73190;50.780;5.658;2023-11-21T13:05:46;26.80;;;15.20;;
83282;SDS011;73190;50.780;5.658;2023-11-21T13:08:19;28.95;;;16.85;;
83282;SDS011;73190;50.780;5.658;2023-11-21T13:13:16;26.50;;;15.55;;
83282;SDS011;73190;50.780;5.658;2023-11-21T13:15:49;28.05;;;16.23;;
83282;SDS011;73190;50.780;5.658;2023-11-21T13:18:18;30.85;;;16.97;;
83282;SDS011;73190;50.780;5.658;2023-11-21T13:20:47;30.80;;;17.63;;
83282;SDS011;73190;50.780;5.658;2023-11-21T13:23:15;31.05;;;18.27;;
83282;SDS011;73190;50.780;5.658;2023-11-21T13:25:43;29.92;;;18.50;;
83282;SDS011;73190;50.780;5.658;2023-11-21T13:28:12;32.30;;;17.60;;
83282;SDS011;73190;50.780;5.658;2023-11-21T13:30:42;29.82;;;16.57;;
83282;SDS011;73190;50.780;5.658;2023-11-21T13:33:11;29.75;;;17.12;;
83282;SDS011;73190;50.780;5.658;2023-11-21T13:35:40;28.05;;;15.95;;
83282;SDS011;73190;50.780;5.658;2023-11-21T13:38:10;26.30;;;16.10;;
83282;SDS011;73190;50.780;5.658;2023-11-21T13:40:39;31.10;;;16.23;;
83282;SDS011;73190;50.780;5.658;2023-11-21T13:43:12;25.62;;;16.45;;
83282;SDS011;73190;50.780;5.658;2023-11-21T13:45:41;28.93;;;16.50;;
83282;SDS011;73190;50.780;5.658;2023-11-21T13:48:10;26.77;;;16.42;;
83282;SDS011;73190;50.780;5.658;2023-11-21T13:50:43;33.75;;;19.00;;
83282;SDS011;73190;50.780;5.658;2023-11-21T13:53:12;22.67;;;14.80;;
83282;SDS011;73190;50.780;5.658;2023-11-21T13:55:51;23.07;;;13.88;;
83282;SDS011;73190;50.780;5.658;2023-11-21T13:58:21;21.12;;;13.28;;
83282;SDS011;73190;50.780;5.658;2023-11-21T14:00:50;25.00;;;15.30;;
83282;SDS011;73190;50.780;5.658;2023-11-21T14:03:24;29.63;;;19.45;;
83282;SDS011;73190;50.780;5.658;2023-11-21T14:05:53;22.20;;;14.53;;
83282;SDS011;73190;50.780;5.658;2023-11-21T14:08:22;31.37;;;19.98;;
83282;SDS011;73190;50.780;5.658;2023-11-21T14:10:51;18.80;;;13.60;;
83282;SDS011;73190;50.780;5.658;2023-11-21T14:13:21;19.93;;;13.23;;
83282;SDS011;73190;50.780;5.658;2023-11-21T14:15:49;17.95;;;12.78;;
83282;SDS011;73190;50.780;5.658;2023-11-21T14:18:19;17.50;;;12.85;;
83282;SDS011;73190;50.780;5.658;2023-11-21T14:20:48;20.57;;;14.00;;
83282;SDS011;73190;50.780;5.658;2023-11-21T14:23:16;18.48;;;13.03;;
83282;SDS011;73190;50.780;5.658;2023-11-21T14:25:45;20.50;;;14.50;;
83282;SDS011;73190;50.780;5.658;2023-11-21T14:28:15;19.98;;;13.38;;
83282;SDS011;73190;50.780;5.658;2023-11-21T14:30:42;22.15;;;15.10;;
83282;SDS011;73190;50.780;5.658;2023-11-21T14:33:10;24.10;;;15.28;;
83282;SDS011;73190;50.780;5.658;2023-11-21T14:35:37;34.92;;;20.97;;
83282;SDS011;73190;50.780;5.658;2023-11-21T14:38:05;42.98;;;27.45;;
83282;SDS011;73190;50.780;5.658;2023-11-21T14:40:33;18.73;;;13.75;;
83282;SDS011;73190;50.780;5.658;2023-11-21T14:43:02;18.57;;;13.25;;
83282;SDS011;73190;50.780;5.658;2023-11-21T14:45:33;21.27;;;13.85;;
83282;SDS011;73190;50.780;5.658;2023-11-21T14:48:01;23.18;;;14.90;;
83282;SDS011;73190;50.780;5.658;2023-11-21T14:50:36;20.48;;;14.75;;
83282;SDS011;73190;50.780;5.658;2023-11-21T14:53:05;21.27;;;13.60;;
83282;SDS011;73190;50.780;5.658;2023-11-21T14:55:35;19.23;;;12.70;;
83282;SDS011;73190;50.780;5.658;2023-11-21T14:58:19;19.25;;;12.33;;
83282;SDS011;73190;50.780;5.658;2023-11-21T15:00:58;20.92;;;12.28;;
83282;SDS011;73190;50.780;5.658;2023-11-21T15:03:27;22.85;;;13.22;;
83282;SDS011;73190;50.780;5.658;2023-11-21T15:06:01;21.23;;;14.07;;